createdAt,value
2023-04-07T00:01:40.782Z,9.43
2023-04-07T00:04:29.544Z,9.50
2023-04-07T00:07:18.116Z,9.60
2023-04-07T00:10:07.703Z,10.67
2023-04-07T00:12:56.230Z,9.67
2023-04-07T00:15:44.797Z,10.60
2023-04-07T00:18:34.743Z,9.60
2023-04-07T00:21:23.337Z,10.20
2023-04-07T00:24:14.408Z,10.00
2023-04-07T00:27:05.133Z,8.73
2023-04-07T00:29:55.385Z,10.30
2023-04-07T00:32:45.479Z,10.20
2023-04-07T00:35:35.838Z,9.97
2023-04-07T00:38:24.351Z,10.70
2023-04-07T00:41:12.882Z,11.43
2023-04-07T00:44:01.438Z,10.50
2023-04-07T00:46:50.015Z,9.80
2023-04-07T00:49:38.713Z,11.33
2023-04-07T00:52:30.061Z,11.40
2023-04-07T00:55:18.620Z,10.77
2023-04-07T00:58:07.192Z,11.17
2023-04-07T01:01:04.914Z,10.40
2023-04-07T01:03:55.780Z,9.93
2023-04-07T01:06:47.947Z,10.53
2023-04-07T01:09:44.340Z,10.40
2023-04-07T01:12:37.602Z,9.23
2023-04-07T01:15:29.070Z,11.27
2023-04-07T01:18:22.158Z,11.10
2023-04-07T01:21:12.643Z,11.23
2023-04-07T01:24:29.989Z,10.53
2023-04-07T01:27:25.772Z,11.00
2023-04-07T01:30:17.105Z,9.50
2023-04-07T01:33:06.477Z,9.30
2023-04-07T01:35:56.231Z,10.03
2023-04-07T01:38:46.048Z,9.60
2023-04-07T01:41:35.013Z,9.63
2023-04-07T01:44:23.911Z,9.60
2023-04-07T01:47:13.882Z,10.20
2023-04-07T01:50:03.974Z,9.43
2023-04-07T01:52:52.890Z,10.87
2023-04-07T01:55:41.518Z,9.60
2023-04-07T01:58:30.560Z,8.77
2023-04-07T02:01:19.291Z,9.80
2023-04-07T02:04:13.367Z,8.43
2023-04-07T02:07:05.768Z,8.83
2023-04-07T02:09:56.084Z,11.07
2023-04-07T02:12:45.624Z,9.20
2023-04-07T02:15:34.551Z,10.80
2023-04-07T02:18:24.020Z,9.77
2023-04-07T02:21:15.110Z,9.07
2023-04-07T02:24:05.878Z,9.47
2023-04-07T02:26:54.629Z,9.07
2023-04-07T02:29:43.116Z,10.10
2023-04-07T02:32:31.752Z,9.03
2023-04-07T02:35:20.479Z,9.87
2023-04-07T02:38:10.573Z,9.60
2023-04-07T02:40:59.488Z,10.40
2023-04-07T02:43:48.086Z,10.90
2023-04-07T02:46:36.712Z,9.33
2023-04-07T02:49:25.331Z,9.50
2023-04-07T02:52:13.907Z,10.23
2023-04-07T02:55:04.197Z,10.00
2023-04-07T02:57:52.755Z,10.50
2023-04-07T03:00:41.282Z,10.37
2023-04-07T03:03:29.968Z,10.57
2023-04-07T03:06:18.622Z,10.60
2023-04-07T03:09:07.264Z,9.70
2023-04-07T03:11:57.132Z,11.60
2023-04-07T03:14:45.814Z,9.17
2023-04-07T03:17:34.676Z,9.90
2023-04-07T03:20:23.211Z,10.17
2023-04-07T03:23:11.731Z,8.97
2023-04-07T03:26:00.307Z,10.27
2023-04-07T03:28:50.307Z,9.13
2023-04-07T03:31:38.829Z,9.47
2023-04-07T03:34:27.355Z,10.07
2023-04-07T03:37:15.898Z,9.10
2023-04-07T03:40:04.613Z,9.10
2023-04-07T03:42:53.184Z,8.57
2023-04-07T03:45:43.129Z,10.17
2023-04-07T03:48:31.999Z,8.80
2023-04-07T03:51:20.648Z,9.50
2023-04-07T03:54:09.209Z,10.47
2023-04-07T03:56:57.867Z,10.40
2023-04-07T03:59:47.470Z,9.57
2023-04-07T04:02:37.415Z,11.30
2023-04-07T04:05:25.966Z,10.30
2023-04-07T04:08:14.521Z,9.70
2023-04-07T04:11:03.032Z,9.60
2023-04-07T04:13:51.775Z,9.60
2023-04-07T04:16:40.823Z,9.37
2023-04-07T04:19:30.636Z,9.13
2023-04-07T04:22:19.302Z,9.37
2023-04-07T04:25:08.282Z,9.80
2023-04-07T04:27:56.918Z,9.73
2023-04-07T04:30:45.415Z,9.57
2023-04-07T04:33:33.962Z,9.00
2023-04-07T04:36:23.809Z,8.77
2023-04-07T04:39:12.567Z,11.00
2023-04-07T04:42:01.147Z,9.90
2023-04-07T04:44:49.862Z,9.73
2023-04-07T04:47:39.039Z,9.13
2023-04-07T04:50:27.789Z,10.77
2023-04-07T04:53:17.620Z,9.30
2023-04-07T04:56:07.079Z,9.33
2023-04-07T04:58:55.592Z,10.33
2023-04-07T05:01:44.252Z,11.13
2023-04-07T05:04:33.084Z,9.40
2023-04-07T05:07:21.752Z,9.80
2023-04-07T05:10:12.739Z,9.90
2023-04-07T05:13:01.312Z,9.60
2023-04-07T05:15:49.922Z,9.30
2023-04-07T05:18:38.497Z,8.80
2023-04-07T05:21:27.112Z,9.60
2023-04-07T05:24:15.626Z,10.70
2023-04-07T05:27:05.616Z,9.77
2023-04-07T05:29:54.161Z,9.10
2023-04-07T05:32:42.748Z,8.10
2023-04-07T05:35:31.360Z,8.97
2023-04-07T05:38:19.913Z,9.20
2023-04-07T05:41:08.451Z,9.60
2023-04-07T05:43:58.375Z,8.77
2023-04-07T05:46:46.944Z,9.20
2023-04-07T05:49:35.678Z,9.50
2023-04-07T05:52:24.236Z,10.07
2023-04-07T05:55:12.924Z,9.60
2023-04-07T05:58:01.411Z,9.90
2023-04-07T06:00:51.336Z,10.03
2023-04-07T06:03:41.255Z,11.03
2023-04-07T06:06:30.199Z,10.27
2023-04-07T06:09:18.684Z,10.40
2023-04-07T06:12:07.356Z,11.13
2023-04-07T06:14:56.576Z,10.53
2023-04-07T06:17:46.545Z,9.93
2023-04-07T06:20:35.763Z,11.10
2023-04-07T06:23:24.309Z,10.87
2023-04-07T06:26:13.111Z,10.70
2023-04-07T06:29:01.816Z,10.63
2023-04-07T06:31:50.411Z,10.40
2023-04-07T06:34:40.376Z,10.50
2023-04-07T06:37:28.933Z,10.63
2023-04-07T06:40:17.532Z,9.97
2023-04-07T06:43:06.209Z,10.20
2023-04-07T06:45:54.698Z,9.80
2023-04-07T06:48:43.188Z,9.03
2023-04-07T06:51:33.145Z,8.17
2023-04-07T06:54:21.658Z,8.40
2023-04-07T06:57:12.153Z,8.03
2023-04-07T07:00:00.743Z,6.80
2023-04-07T07:02:49.411Z,8.73
2023-04-07T07:05:38.002Z,8.90
2023-04-07T07:08:28.305Z,7.70
2023-04-07T07:11:17.007Z,7.43
2023-04-07T07:14:05.445Z,7.87
2023-04-07T07:16:53.916Z,7.47
2023-04-07T07:19:43.107Z,7.00
2023-04-07T07:22:31.919Z,6.67
2023-04-07T07:25:21.910Z,6.50
2023-04-07T07:28:10.456Z,6.03
2023-04-07T07:30:58.998Z,6.60
2023-04-07T07:33:49.115Z,6.57
2023-04-07T07:36:37.925Z,5.80
2023-04-07T07:39:26.783Z,5.37
2023-04-07T07:42:17.154Z,5.87
2023-04-07T07:45:06.618Z,4.93
2023-04-07T07:47:55.204Z,4.90
2023-04-07T07:50:44.525Z,5.20
2023-04-07T07:53:33.090Z,5.17
2023-04-07T07:56:21.610Z,5.63
2023-04-07T07:59:11.424Z,5.07
2023-04-07T08:02:00.237Z,4.93
2023-04-07T08:04:48.888Z,5.63
2023-04-07T08:07:37.685Z,4.77
2023-04-07T08:10:26.240Z,5.60
2023-04-07T08:13:14.706Z,5.10
2023-04-07T08:16:04.845Z,5.20
2023-04-07T08:18:53.470Z,4.80
2023-04-07T08:21:41.959Z,5.13
2023-04-07T08:24:30.661Z,5.37
2023-04-07T08:27:19.152Z,6.00
2023-04-07T08:30:08.617Z,6.00
2023-04-07T08:32:58.667Z,5.50
2023-04-07T08:35:47.424Z,5.30
2023-04-07T08:38:36.063Z,5.60
2023-04-07T08:41:30.494Z,5.97
2023-04-07T08:44:19.383Z,5.53
2023-04-07T08:47:08.764Z,4.80
2023-04-07T08:50:03.573Z,5.63
2023-04-07T08:52:55.686Z,5.17
2023-04-07T08:55:44.211Z,4.70
2023-04-07T08:58:32.712Z,5.53
2023-04-07T09:01:21.646Z,4.80
2023-04-07T09:04:11.440Z,4.23
2023-04-07T09:07:02.140Z,5.33
2023-04-07T09:09:50.951Z,4.70
2023-04-07T09:12:39.850Z,4.30
2023-04-07T09:15:31.660Z,5.27
2023-04-07T09:18:20.553Z,4.90
2023-04-07T09:21:09.094Z,5.00
2023-04-07T09:23:58.895Z,4.53
2023-04-07T09:26:47.445Z,4.77
2023-04-07T09:29:35.943Z,4.63
2023-04-07T09:32:38.664Z,4.83
2023-04-07T09:35:28.612Z,5.00
2023-04-07T09:38:17.545Z,4.60
2023-04-07T09:41:12.136Z,5.07
2023-04-07T09:44:00.581Z,6.00
2023-04-07T09:46:52.707Z,5.33
2023-04-07T09:49:50.422Z,5.97
2023-04-07T09:52:52.955Z,5.30
2023-04-07T09:55:42.601Z,5.30
2023-04-07T09:58:32.490Z,5.27
2023-04-07T10:01:22.841Z,6.50
2023-04-07T10:04:12.016Z,5.23
2023-04-07T10:07:01.185Z,5.77
2023-04-07T10:09:49.698Z,6.40
2023-04-07T10:12:38.923Z,6.20
2023-04-07T10:15:28.799Z,5.50
2023-04-07T10:18:19.038Z,5.20
2023-04-07T10:21:09.353Z,3.70
2023-04-07T10:24:02.456Z,3.90
2023-04-07T10:26:53.167Z,4.43
2023-04-07T10:29:42.932Z,4.13
2023-04-07T10:32:32.903Z,4.80
2023-04-07T10:35:22.367Z,5.27
2023-04-07T10:38:13.937Z,5.63
2023-04-07T10:41:36.291Z,4.13
2023-04-07T10:44:46.978Z,4.00
2023-04-07T10:47:37.879Z,3.63
2023-04-07T10:50:26.725Z,3.70
2023-04-07T10:53:16.376Z,4.10
2023-04-07T10:56:05.783Z,4.50
2023-04-07T10:59:15.369Z,4.17
2023-04-07T11:02:32.693Z,4.03
2023-04-07T11:05:23.950Z,4.60
2023-04-07T11:08:12.578Z,4.67
2023-04-07T11:11:01.355Z,5.53
2023-04-07T11:13:51.493Z,4.77
2023-04-07T11:16:42.754Z,5.60
2023-04-07T11:19:32.454Z,4.43
2023-04-07T11:22:30.001Z,5.27
2023-04-07T11:25:23.158Z,5.30
2023-04-07T11:28:13.067Z,5.17
2023-04-07T11:31:01.933Z,5.00
2023-04-07T11:33:54.829Z,4.70
2023-04-07T11:36:43.439Z,4.80
2023-04-07T11:39:35.176Z,4.80
2023-04-07T11:42:33.300Z,4.40
2023-04-07T11:45:22.150Z,5.57
2023-04-07T11:48:28.846Z,5.13
2023-04-07T11:51:18.358Z,4.93
2023-04-07T11:54:07.004Z,4.07
2023-04-07T11:56:56.930Z,4.27
2023-04-07T11:59:45.479Z,3.50
2023-04-07T12:02:34.794Z,3.00
2023-04-07T12:05:24.866Z,3.20
2023-04-07T12:08:14.851Z,3.10
2023-04-07T12:11:05.336Z,2.93
2023-04-07T12:13:56.136Z,2.40
2023-04-07T12:16:45.298Z,2.57
2023-04-07T12:19:34.874Z,2.90
2023-04-07T12:22:23.840Z,2.80
2023-04-07T12:25:12.301Z,2.70
2023-04-07T12:28:00.795Z,3.03
2023-04-07T12:30:50.979Z,3.00
2023-04-07T12:33:39.506Z,3.00
2023-04-07T12:36:29.387Z,3.10
2023-04-07T12:39:17.961Z,2.90
2023-04-07T12:42:07.643Z,3.37
2023-04-07T12:44:56.684Z,2.80
2023-04-07T12:47:47.010Z,2.50
2023-04-07T12:50:36.427Z,2.50
2023-04-07T12:53:24.964Z,2.57
2023-04-07T12:56:13.898Z,2.30
2023-04-07T12:59:02.391Z,2.47
2023-04-07T13:01:51.538Z,2.20
2023-04-07T13:04:43.531Z,2.73
2023-04-07T13:07:32.109Z,2.40
2023-04-07T13:10:21.309Z,2.33
2023-04-07T13:13:09.840Z,2.27
2023-04-07T13:15:58.457Z,2.70
2023-04-07T13:18:47.204Z,2.73
2023-04-07T13:21:46.183Z,2.60
2023-04-07T13:24:36.812Z,1.80
2023-04-07T13:27:25.356Z,2.17
2023-04-07T13:30:14.611Z,2.00
2023-04-07T13:33:03.195Z,1.70
2023-04-07T13:35:51.818Z,2.00
2023-04-07T13:38:42.376Z,1.70
2023-04-07T13:41:31.758Z,1.60
2023-04-07T13:44:20.726Z,1.50
2023-04-07T13:47:09.269Z,1.80
2023-04-07T13:49:57.876Z,2.70
2023-04-07T13:52:46.719Z,3.10
2023-04-07T13:55:36.695Z,2.50
2023-04-07T13:58:25.375Z,2.10
2023-04-07T14:01:13.952Z,2.67
2023-04-07T14:04:02.877Z,2.33
2023-04-07T14:06:51.661Z,2.20
2023-04-07T14:09:40.423Z,2.10
2023-04-07T14:12:30.328Z,2.10
2023-04-07T14:15:18.780Z,2.23
2023-04-07T14:18:07.400Z,2.43
2023-04-07T14:20:56.037Z,2.30
2023-04-07T14:23:44.594Z,2.40
2023-04-07T14:26:33.120Z,1.63
2023-04-07T14:29:23.643Z,1.70
2023-04-07T14:32:12.174Z,2.20
2023-04-07T14:35:01.360Z,1.80
2023-04-07T14:37:49.865Z,1.43
2023-04-07T14:40:38.446Z,1.97
2023-04-07T14:43:27.772Z,1.97
2023-04-07T14:46:17.785Z,1.60
2023-04-07T14:49:06.445Z,2.20
2023-04-07T14:51:55.045Z,2.20
2023-04-07T14:54:43.591Z,2.50
2023-04-07T14:57:32.090Z,2.30
2023-04-07T15:00:20.873Z,1.93
2023-04-07T15:03:11.295Z,2.10
2023-04-07T15:06:00.392Z,2.10
2023-04-07T15:08:48.935Z,1.90
2023-04-07T15:11:37.523Z,1.83
2023-04-07T15:14:26.147Z,2.43
2023-04-07T15:17:14.696Z,1.90
2023-04-07T15:20:04.797Z,1.80
2023-04-07T15:22:53.316Z,1.90
2023-04-07T15:25:41.851Z,1.63
2023-04-07T15:28:30.478Z,1.90
2023-04-07T15:31:21.442Z,2.10
2023-04-07T15:34:10.034Z,1.20
2023-04-07T15:37:02.179Z,1.60
2023-04-07T15:39:52.270Z,1.83
2023-04-07T15:42:42.053Z,1.83
2023-04-07T15:45:30.758Z,1.70
2023-04-07T15:48:19.427Z,1.30
2023-04-07T15:51:07.995Z,1.60
2023-04-07T15:53:57.858Z,1.43
2023-04-07T15:56:46.409Z,1.10
2023-04-07T15:59:36.251Z,1.03
2023-04-07T16:02:25.065Z,1.40
2023-04-07T16:05:13.873Z,1.50
2023-04-07T16:08:02.712Z,1.50
2023-04-07T16:10:52.895Z,1.30
2023-04-07T16:13:41.366Z,1.57
2023-04-07T16:16:32.243Z,1.50
2023-04-07T16:19:21.640Z,1.50
2023-04-07T16:22:10.448Z,2.10
2023-04-07T16:24:58.928Z,2.97
2023-04-07T16:27:48.854Z,2.73
2023-04-07T16:30:37.348Z,2.90
2023-04-07T16:33:28.088Z,2.97
2023-04-07T16:36:16.636Z,3.00
2023-04-07T16:39:05.371Z,2.67
2023-04-07T16:41:53.876Z,2.43
2023-04-07T16:44:43.698Z,2.67
2023-04-07T16:47:33.116Z,2.90
2023-04-07T16:50:21.881Z,2.60
2023-04-07T16:53:10.497Z,2.60
2023-04-07T16:55:58.988Z,2.50
2023-04-07T16:58:47.737Z,3.20
2023-04-07T17:01:41.947Z,2.93
2023-04-07T17:04:30.892Z,2.60
2023-04-07T17:07:20.048Z,3.40
2023-04-07T17:10:09.875Z,2.83
2023-04-07T17:12:58.402Z,3.50
2023-04-07T17:15:47.118Z,3.03
2023-04-07T17:18:36.991Z,3.10
2023-04-07T17:21:26.126Z,3.00
2023-04-07T17:24:20.938Z,3.00
2023-04-07T17:27:09.570Z,3.33
2023-04-07T17:29:58.208Z,3.53
2023-04-07T17:32:46.771Z,3.37
2023-04-07T17:35:36.943Z,3.50
2023-04-07T17:38:25.592Z,3.97
2023-04-07T17:41:14.358Z,3.20
2023-04-07T17:44:03.134Z,3.20
2023-04-07T17:46:51.758Z,3.50
2023-04-07T17:49:40.604Z,3.60
2023-04-07T17:52:30.696Z,4.00
2023-04-07T17:55:19.624Z,3.60
2023-04-07T17:58:08.336Z,4.03
2023-04-07T18:00:57.074Z,4.00
2023-04-07T18:03:45.738Z,4.30
2023-04-07T18:06:35.000Z,4.10
2023-04-07T18:09:26.793Z,4.40
2023-04-07T18:12:15.327Z,4.17
2023-04-07T18:15:04.595Z,4.27
2023-04-07T18:17:54.967Z,4.10
2023-04-07T18:20:43.564Z,4.43
2023-04-07T18:23:32.160Z,3.97
2023-04-07T18:26:22.428Z,4.33
2023-04-07T18:29:11.765Z,4.47
2023-04-07T18:32:00.470Z,4.17
2023-04-07T18:34:49.044Z,4.93
2023-04-07T18:37:37.690Z,4.60
2023-04-07T18:40:26.412Z,4.97
2023-04-07T18:43:17.377Z,5.00
2023-04-07T18:46:06.447Z,5.00
2023-04-07T18:48:54.965Z,4.93
2023-04-07T18:51:44.563Z,5.33
2023-04-07T18:54:33.102Z,5.50
2023-04-07T18:57:21.852Z,4.60
2023-04-07T19:00:12.397Z,5.30
2023-04-07T19:03:01.134Z,4.50
2023-04-07T19:05:52.540Z,5.10
2023-04-07T19:08:41.381Z,4.93
2023-04-07T19:11:29.948Z,4.90
2023-04-07T19:14:18.488Z,4.80
2023-04-07T19:17:08.439Z,5.80
2023-04-07T19:19:56.990Z,6.50
2023-04-07T19:22:45.592Z,5.47
2023-04-07T19:25:34.907Z,5.70
2023-04-07T19:28:23.540Z,6.40
2023-04-07T19:31:12.157Z,5.00
2023-04-07T19:34:02.084Z,6.00
2023-04-07T19:36:50.640Z,5.87
2023-04-07T19:39:40.196Z,5.80
2023-04-07T19:42:29.738Z,5.40
2023-04-07T19:45:18.903Z,6.40
2023-04-07T19:48:07.933Z,6.10
2023-04-07T19:50:57.887Z,5.73
2023-04-07T19:53:46.833Z,6.03
2023-04-07T19:56:35.605Z,5.77
2023-04-07T19:59:24.081Z,5.87
2023-04-07T20:02:12.764Z,6.03
2023-04-07T20:05:01.382Z,5.77
2023-04-07T20:07:51.485Z,5.63
2023-04-07T20:10:40.018Z,6.37
2023-04-07T20:13:31.655Z,5.70
2023-04-07T20:16:20.485Z,6.50
2023-04-07T20:19:09.061Z,5.30
2023-04-07T20:21:57.653Z,5.93
2023-04-07T20:24:47.559Z,5.33
2023-04-07T20:27:36.151Z,4.47
2023-04-07T20:30:24.893Z,4.97
2023-04-07T20:33:14.037Z,4.63
2023-04-07T20:36:02.604Z,5.60
2023-04-07T20:38:51.449Z,5.57
2023-04-07T20:41:42.851Z,5.30
2023-04-07T20:44:31.604Z,5.20
2023-04-07T20:47:20.105Z,6.00
2023-04-07T20:50:09.805Z,5.17
2023-04-07T20:52:58.655Z,5.23
2023-04-07T20:55:47.346Z,5.73
2023-04-07T20:58:37.260Z,6.00
2023-04-07T21:01:25.990Z,5.17
2023-04-07T21:04:14.814Z,5.90
2023-04-07T21:07:03.460Z,5.47
2023-04-07T21:09:51.953Z,6.27
2023-04-07T21:12:40.434Z,6.17
2023-04-07T21:15:30.672Z,6.00
2023-04-07T21:18:19.559Z,6.20
2023-04-07T21:21:08.564Z,6.97
2023-04-07T21:23:57.035Z,6.43
2023-04-07T21:26:45.563Z,7.63
2023-04-07T21:29:34.082Z,6.20
2023-04-07T21:32:25.011Z,6.00
2023-04-07T21:35:13.589Z,6.00
2023-04-07T21:38:02.077Z,5.63
2023-04-07T21:40:50.690Z,5.77
2023-04-07T21:43:39.428Z,4.30
2023-04-07T21:46:28.938Z,5.03
2023-04-07T21:49:22.090Z,4.30
2023-04-07T21:52:10.747Z,4.77
2023-04-07T21:54:59.231Z,4.53
2023-04-07T21:57:47.849Z,5.10
2023-04-07T22:00:38.277Z,5.10
2023-04-07T22:03:26.947Z,4.60
2023-04-07T22:06:17.069Z,4.77
2023-04-07T22:09:06.689Z,4.80
2023-04-07T22:11:55.988Z,5.97
2023-04-07T22:14:45.185Z,5.40
2023-04-07T22:17:33.809Z,4.90
2023-04-07T22:20:22.310Z,5.40
2023-04-07T22:23:12.166Z,4.43
2023-04-07T22:26:00.712Z,4.90
2023-04-07T22:28:49.367Z,4.80
2023-04-07T22:31:37.980Z,4.57
2023-04-07T22:34:26.476Z,4.80
2023-04-07T22:37:14.948Z,4.77
2023-04-07T22:40:05.680Z,4.80
2023-04-07T22:42:54.231Z,5.23
2023-04-07T22:45:42.889Z,5.00
2023-04-07T22:48:31.372Z,4.43
2023-04-07T22:51:19.884Z,4.97
2023-04-07T22:54:08.349Z,4.40
2023-04-07T22:56:58.202Z,5.13
2023-04-07T22:59:46.646Z,5.33
2023-04-07T23:02:35.433Z,6.27
2023-04-07T23:05:24.102Z,7.97
2023-04-07T23:08:12.655Z,8.80
2023-04-07T23:11:01.187Z,8.27
2023-04-07T23:13:51.270Z,9.23
2023-04-07T23:16:39.887Z,10.33
2023-04-07T23:19:28.419Z,9.03
2023-04-07T23:22:16.977Z,9.50
2023-04-07T23:25:06.887Z,9.67
2023-04-07T23:27:55.456Z,8.77
2023-04-07T23:30:45.502Z,9.53
2023-04-07T23:33:33.990Z,10.83
2023-04-07T23:36:22.586Z,9.50
2023-04-07T23:39:11.353Z,10.10
2023-04-07T23:42:00.123Z,10.23
2023-04-07T23:44:48.657Z,10.40
2023-04-07T23:47:38.600Z,10.00
2023-04-07T23:50:27.804Z,9.90
2023-04-07T23:53:16.440Z,11.33
2023-04-07T23:56:05.000Z,10.53
2023-04-07T23:58:53.990Z,9.70
